createdAt,value
2023-03-04T00:00:02.262Z,24.17
2023-03-04T00:05:14.701Z,21.05
2023-03-04T00:10:18.924Z,19.05
2023-03-04T00:15:22.623Z,27.20
2023-03-04T00:20:27.787Z,22.65
2023-03-04T00:25:31.604Z,22.77
2023-03-04T00:30:35.384Z,29.48
2023-03-04T00:35:42.042Z,30.08
2023-03-04T00:40:45.740Z,23.45
2023-03-04T00:45:50.282Z,21.65
2023-03-04T00:50:55.421Z,22.15
2023-03-04T00:55:59.284Z,18.48
2023-03-04T01:01:03.034Z,15.85
2023-03-04T01:06:08.512Z,19.50
2023-03-04T01:11:12.343Z,22.83
2023-03-04T01:16:16.146Z,16.37
2023-03-04T01:21:21.246Z,13.05
2023-03-04T01:26:25.026Z,13.70
2023-03-04T01:31:29.843Z,17.02
2023-03-04T01:36:34.924Z,31.90
2023-03-04T01:41:38.707Z,28.25
2023-03-04T01:46:44.996Z,19.17
2023-03-04T01:51:52.521Z,33.80
2023-03-04T01:57:00.191Z,22.40
2023-03-04T02:02:04.203Z,20.75
2023-03-04T02:07:10.050Z,16.50
2023-03-04T02:12:14.412Z,23.83
2023-03-04T02:17:18.375Z,19.27
2023-03-04T02:22:23.733Z,20.48
2023-03-04T02:27:28.845Z,17.70
2023-03-04T02:32:32.829Z,27.67
2023-03-04T02:37:36.755Z,17.92
2023-03-04T02:42:44.871Z,19.33
2023-03-04T02:47:48.761Z,17.12
2023-03-04T02:52:53.633Z,22.52
2023-03-04T02:57:58.974Z,18.95
2023-03-04T03:03:02.969Z,13.05
2023-03-04T03:08:07.642Z,14.95
2023-03-04T03:13:13.036Z,18.58
2023-03-04T03:18:17.515Z,12.27
2023-03-04T03:23:21.308Z,17.08
2023-03-04T03:28:26.526Z,23.73
2023-03-04T03:33:30.361Z,18.10
2023-03-04T03:38:34.318Z,22.65
2023-03-04T03:43:39.379Z,13.62
2023-03-04T03:48:43.096Z,21.30
2023-03-04T03:53:46.887Z,19.08
2023-03-04T03:58:52.027Z,14.75
2023-03-04T04:03:55.763Z,15.82
2023-03-04T04:08:59.623Z,20.95
2023-03-04T04:14:04.684Z,12.80
2023-03-04T04:19:08.383Z,19.60
2023-03-04T04:24:12.189Z,18.17
2023-03-04T04:29:18.509Z,20.88
2023-03-04T04:34:22.196Z,17.12
2023-03-04T04:39:25.833Z,19.52
2023-03-04T04:44:30.824Z,15.65
2023-03-04T04:49:34.482Z,18.75
2023-03-04T04:54:38.232Z,18.75
2023-03-04T04:59:43.265Z,16.33
2023-03-04T05:04:46.928Z,14.25
2023-03-04T05:09:50.633Z,15.02
2023-03-04T05:14:55.641Z,17.90
2023-03-04T05:19:59.376Z,21.48
2023-03-04T05:25:03.170Z,20.00
2023-03-04T05:30:10.128Z,16.37
2023-03-04T05:35:13.860Z,19.15
2023-03-04T05:40:17.959Z,14.90
2023-03-04T05:45:22.999Z,16.02
2023-03-04T05:50:27.115Z,18.15
2023-03-04T05:55:31.792Z,15.07
2023-03-04T06:00:36.808Z,11.80
2023-03-04T06:05:40.490Z,18.20
2023-03-04T06:10:44.270Z,14.27
2023-03-04T06:15:54.375Z,15.15
2023-03-04T06:20:59.465Z,17.85
2023-03-04T06:26:03.312Z,10.38
2023-03-04T06:31:08.561Z,18.02
2023-03-04T06:36:12.295Z,11.68
2023-03-04T06:41:16.223Z,16.55
2023-03-04T06:46:21.407Z,12.80
2023-03-04T06:51:25.329Z,12.85
2023-03-04T06:56:29.212Z,17.62
2023-03-04T07:01:34.781Z,9.35
2023-03-04T07:06:38.498Z,16.02
2023-03-04T07:11:42.479Z,15.70
2023-03-04T07:16:47.534Z,11.88
2023-03-04T07:21:51.292Z,14.55
2023-03-04T07:26:55.018Z,16.35
2023-03-04T07:32:00.120Z,12.85
2023-03-04T07:37:04.517Z,11.40
2023-03-04T07:42:08.416Z,16.95
2023-03-04T07:47:16.696Z,14.65
2023-03-04T07:52:20.460Z,12.37
2023-03-04T07:57:24.185Z,14.10
2023-03-04T08:02:29.247Z,11.77
2023-03-04T08:07:33.097Z,14.50
2023-03-04T08:12:37.490Z,21.37
2023-03-04T08:17:42.549Z,18.95
2023-03-04T08:22:46.229Z,22.67
2023-03-04T08:27:49.934Z,10.15
2023-03-04T08:32:55.082Z,16.70
2023-03-04T08:38:01.370Z,13.48
2023-03-04T08:43:06.072Z,16.40
2023-03-04T08:48:12.589Z,11.10
2023-03-04T08:53:17.717Z,15.10
2023-03-04T08:58:21.816Z,10.88
2023-03-04T09:03:27.437Z,14.63
2023-03-04T09:08:32.194Z,11.77
2023-03-04T09:13:35.943Z,13.15
2023-03-04T09:18:42.034Z,15.88
2023-03-04T09:23:45.809Z,13.70
2023-03-04T09:28:52.053Z,10.90
2023-03-04T09:33:58.366Z,14.00
2023-03-04T09:39:02.264Z,11.70
2023-03-04T09:44:13.407Z,19.87
2023-03-04T09:49:20.313Z,10.32
2023-03-04T09:54:33.867Z,8.32
2023-03-04T09:59:44.260Z,11.73
2023-03-04T10:04:52.536Z,7.45
2023-03-04T10:10:01.868Z,6.50
2023-03-04T10:15:08.741Z,6.65
2023-03-04T10:20:20.674Z,17.60
2023-03-04T10:25:27.198Z,6.85
2023-03-04T10:30:42.670Z,9.80
2023-03-04T10:35:52.040Z,6.82
2023-03-04T10:40:55.912Z,4.70
2023-03-04T10:46:01.300Z,6.30
2023-03-04T10:51:21.125Z,4.75
2023-03-04T10:56:37.312Z,5.32
2023-03-04T11:01:41.563Z,2.90
2023-03-04T11:06:46.766Z,6.30
2023-03-04T11:11:52.648Z,5.12
2023-03-04T11:16:59.030Z,5.07
2023-03-04T11:22:04.691Z,4.35
2023-03-04T11:27:16.493Z,4.32
2023-03-04T11:32:24.948Z,6.20
2023-03-04T11:42:42.519Z,6.10
2023-03-04T11:47:59.241Z,2.87
2023-03-04T11:53:45.761Z,4.82
2023-03-04T11:59:13.228Z,5.45
2023-03-04T12:04:40.750Z,4.20
2023-03-04T12:09:56.841Z,2.07
2023-03-04T12:15:14.516Z,1.98
2023-03-04T12:20:40.417Z,2.83
2023-03-04T12:25:56.212Z,8.13
2023-03-04T12:31:12.152Z,3.30
2023-03-04T12:36:21.856Z,2.78
2023-03-04T12:41:36.162Z,2.92
2023-03-04T12:46:54.395Z,3.78
2023-03-04T12:52:07.998Z,2.47
2023-03-04T12:57:15.608Z,3.90
2023-03-04T13:02:35.324Z,3.67
2023-03-04T13:07:48.626Z,6.47
2023-03-04T13:12:55.010Z,6.43
2023-03-04T13:18:00.227Z,6.10
2023-03-04T13:23:18.037Z,10.40
2023-03-04T13:28:29.112Z,9.07
2023-03-04T13:33:53.180Z,6.60
2023-03-04T13:39:01.772Z,5.60
2023-03-04T13:44:34.939Z,4.78
2023-03-04T13:49:38.757Z,5.70
2023-03-04T13:54:42.467Z,2.40
2023-03-04T13:59:50.252Z,5.05
2023-03-04T14:04:59.598Z,0.90
2023-03-04T14:10:07.471Z,5.55
2023-03-04T14:15:24.186Z,1.15
2023-03-04T14:20:30.108Z,4.53
2023-03-04T14:25:36.991Z,7.18
2023-03-04T14:30:44.557Z,7.90
2023-03-04T14:35:50.177Z,7.60
2023-03-04T14:40:57.225Z,7.80
2023-03-04T14:46:04.230Z,9.95
2023-03-04T14:51:07.966Z,7.43
2023-03-04T14:56:11.937Z,6.47
2023-03-04T15:01:20.384Z,11.45
2023-03-04T15:11:31.896Z,6.43
2023-03-04T15:16:55.899Z,6.72
2023-03-04T15:22:06.998Z,5.53
2023-03-04T15:27:13.547Z,8.05
2023-03-04T15:32:19.134Z,10.07
2023-03-04T15:37:25.773Z,10.45
2023-03-04T15:42:29.714Z,8.43
2023-03-04T15:47:36.002Z,9.65
2023-03-04T15:52:39.992Z,6.68
2023-03-04T15:57:45.628Z,12.68
2023-03-04T16:02:50.898Z,18.42
2023-03-04T16:07:54.788Z,19.52
2023-03-04T16:12:58.829Z,13.43
2023-03-04T16:18:04.139Z,12.35
2023-03-04T16:23:13.389Z,12.95
2023-03-04T16:28:17.216Z,12.52
2023-03-04T16:33:22.453Z,13.48
2023-03-04T16:38:28.278Z,15.05
2023-03-04T16:43:32.665Z,12.35
2023-03-04T16:48:37.774Z,15.32
2023-03-04T16:53:42.829Z,17.52
2023-03-04T16:58:47.777Z,19.92
2023-03-04T17:03:54.111Z,12.95
2023-03-04T17:08:57.805Z,18.17
2023-03-04T17:14:01.601Z,16.62
2023-03-04T17:19:06.752Z,16.02
2023-03-04T17:24:11.892Z,15.20
2023-03-04T17:29:15.702Z,12.37
2023-03-04T17:34:20.833Z,17.08
2023-03-04T17:39:24.943Z,11.52
2023-03-04T17:44:28.721Z,19.95
2023-03-04T17:49:34.169Z,10.90
2023-03-04T17:54:38.035Z,8.52
2023-03-04T17:59:41.901Z,14.38
2023-03-04T18:04:48.688Z,13.75
2023-03-04T18:09:52.475Z,10.43
2023-03-04T18:14:56.389Z,10.77
2023-03-04T18:20:02.002Z,6.57
2023-03-04T18:25:06.600Z,13.57
2023-03-04T18:30:12.612Z,12.40
2023-03-04T18:35:19.488Z,13.65
2023-03-04T18:40:23.336Z,12.35
2023-03-04T18:45:27.702Z,7.72
2023-03-04T18:50:32.818Z,9.55
2023-03-04T18:55:36.624Z,4.28
2023-03-04T19:00:40.352Z,10.82
2023-03-04T19:05:45.560Z,7.57
2023-03-04T19:10:49.254Z,7.35
2023-03-04T19:15:54.492Z,13.55
2023-03-04T19:21:03.617Z,7.32
2023-03-04T19:26:09.303Z,7.22
2023-03-04T19:31:13.376Z,7.82
2023-03-04T19:36:18.560Z,7.43
2023-03-04T19:41:22.611Z,7.12
2023-03-04T19:46:27.420Z,14.85
2023-03-04T19:51:33.200Z,9.27
2023-03-04T19:56:37.261Z,6.45
2023-03-04T20:01:42.456Z,7.60
2023-03-04T20:06:49.584Z,7.47
2023-03-04T20:12:00.469Z,10.93
2023-03-04T20:17:07.077Z,9.85
2023-03-04T20:22:13.404Z,8.82
2023-03-04T20:27:17.470Z,11.18
2023-03-04T20:32:21.331Z,12.25
2023-03-04T20:37:26.475Z,8.65
2023-03-04T20:42:30.253Z,5.80
2023-03-04T20:47:34.088Z,7.45
2023-03-04T20:52:39.247Z,12.48
2023-03-04T20:57:43.094Z,20.08
2023-03-04T21:02:46.949Z,8.77
2023-03-04T21:07:52.132Z,15.95
2023-03-04T21:12:55.904Z,9.82
2023-03-04T21:17:59.627Z,10.20
2023-03-04T21:23:04.961Z,16.80
2023-03-04T21:28:08.790Z,7.37
2023-03-04T21:33:17.825Z,10.23
2023-03-04T21:38:22.970Z,7.80
2023-03-04T21:43:26.686Z,13.48
2023-03-04T21:48:30.433Z,18.58
2023-03-04T21:53:36.544Z,12.35
2023-03-04T21:58:42.208Z,15.80
2023-03-04T22:03:47.285Z,11.63
2023-03-04T22:08:53.476Z,12.45
2023-03-04T22:13:58.544Z,16.40
2023-03-04T22:19:02.304Z,19.42
2023-03-04T22:24:08.108Z,16.02
2023-03-04T22:29:11.797Z,9.50
2023-03-04T22:34:16.810Z,16.15
2023-03-04T22:39:23.111Z,7.32
2023-03-04T22:44:27.148Z,14.55
2023-03-04T22:49:30.938Z,12.18
2023-03-04T22:54:36.010Z,13.50
2023-03-04T22:59:39.694Z,12.37
2023-03-04T23:04:43.443Z,14.23
2023-03-04T23:09:48.523Z,15.18
2023-03-04T23:14:52.265Z,14.68
2023-03-04T23:19:56.094Z,13.60
2023-03-04T23:25:01.621Z,17.87
2023-03-04T23:30:06.511Z,10.13
2023-03-04T23:35:10.349Z,15.30
2023-03-04T23:40:15.597Z,15.38
2023-03-04T23:45:19.476Z,13.85
2023-03-04T23:50:23.394Z,12.77
2023-03-04T23:55:29.321Z,16.05
